createdAt,value
2019-03-04T00:03:00.397Z,8.19
2019-03-04T00:06:24.854Z,8.22
2019-03-04T00:09:31.324Z,8.31
2019-03-04T00:12:38.512Z,8.39
2019-03-04T00:15:44.737Z,8.35
2019-03-04T00:18:53.057Z,8.34
2019-03-04T00:22:00.246Z,8.35
2019-03-04T00:25:06.994Z,8.11
2019-03-04T00:28:13.353Z,8.13
2019-03-04T00:31:19.824Z,8.04
2019-03-04T00:34:26.453Z,7.99
2019-03-04T00:37:33.352Z,7.94
2019-03-04T00:40:40.435Z,7.92
2019-03-04T00:43:46.928Z,7.84
2019-03-04T00:46:53.501Z,7.78
2019-03-04T00:50:00.326Z,7.83
2019-03-04T00:53:06.922Z,7.88
2019-03-04T00:56:13.512Z,8.01
2019-03-04T00:59:20.309Z,8.07
2019-03-04T01:02:26.860Z,8.25
2019-03-04T01:05:34.124Z,8.24
2019-03-04T01:08:40.709Z,8.35
2019-03-04T01:11:48.614Z,8.40
2019-03-04T01:14:55.184Z,8.44
2019-03-04T01:18:01.454Z,8.56
2019-03-04T01:21:08.536Z,8.72
2019-03-04T01:24:15.137Z,8.63
2019-03-04T01:27:21.660Z,8.60
2019-03-04T01:30:28.242Z,8.62
2019-03-04T01:33:34.589Z,8.61
2019-03-04T01:36:41.491Z,8.62
2019-03-04T01:39:48.078Z,8.80
2019-03-04T01:42:54.310Z,8.78
2019-03-04T01:46:01.089Z,8.67
2019-03-04T01:49:07.514Z,8.76
2019-03-04T01:52:13.785Z,8.61
2019-03-04T01:55:20.297Z,8.61
2019-03-04T01:58:26.767Z,8.77
2019-03-04T02:01:33.627Z,8.47
2019-03-04T02:04:40.224Z,8.59
2019-03-04T02:07:46.637Z,8.49
2019-03-04T02:10:53.207Z,8.72
2019-03-04T02:14:00.797Z,8.55
2019-03-04T02:17:07.324Z,8.40
2019-03-04T02:20:14.870Z,8.57
2019-03-04T02:23:21.337Z,8.46
2019-03-04T02:26:32.944Z,8.24
2019-03-04T02:29:39.535Z,8.03
2019-03-04T02:32:46.296Z,7.86
2019-03-04T02:35:52.987Z,7.95
2019-03-04T02:38:59.571Z,8.36
2019-03-04T02:42:06.019Z,8.23
2019-03-04T02:45:14.286Z,8.49
2019-03-04T02:48:20.577Z,8.28
2019-03-04T02:51:26.863Z,8.27
2019-03-04T02:54:33.756Z,8.18
2019-03-04T02:57:40.413Z,8.09
2019-03-04T03:00:47.049Z,8.15
2019-03-04T03:03:53.363Z,8.46
2019-03-04T03:06:59.841Z,8.48
2019-03-04T03:10:08.091Z,8.40
2019-03-04T03:13:14.552Z,8.52
2019-03-04T03:16:21.301Z,8.70
2019-03-04T03:19:27.700Z,8.74
2019-03-04T03:22:34.299Z,8.76
2019-03-04T03:25:41.972Z,8.86
2019-03-04T03:28:48.778Z,8.90
2019-03-04T03:31:55.010Z,8.92
2019-03-04T03:35:01.486Z,8.93
2019-03-04T03:38:08.697Z,8.96
2019-03-04T03:41:15.449Z,8.99
2019-03-04T03:44:22.430Z,8.96
2019-03-04T03:47:29.109Z,9.13
2019-03-04T03:50:35.765Z,9.02
2019-03-04T03:53:42.137Z,9.07
2019-03-04T03:56:48.712Z,9.24
2019-03-04T03:59:55.226Z,9.20
2019-03-04T04:03:01.680Z,9.20
2019-03-04T04:06:07.923Z,9.19
2019-03-04T04:09:14.314Z,9.13
2019-03-04T04:12:21.894Z,9.08
2019-03-04T04:15:28.257Z,9.13
2019-03-04T04:18:34.552Z,8.99
2019-03-04T04:21:40.992Z,8.94
2019-03-04T04:24:47.199Z,8.94
2019-03-04T04:27:53.680Z,8.95
2019-03-04T04:31:00.203Z,8.98
2019-03-04T04:34:06.999Z,9.04
2019-03-04T04:37:13.697Z,9.07
2019-03-04T04:40:19.816Z,8.99
2019-03-04T04:43:26.384Z,9.13
2019-03-04T04:47:06.874Z,9.04
2019-03-04T04:50:14.065Z,9.06
2019-03-04T04:53:21.285Z,9.02
2019-03-04T04:56:28.107Z,9.02
2019-03-04T04:59:35.049Z,9.08
2019-03-04T05:02:41.721Z,8.95
2019-03-04T05:05:48.341Z,9.09
2019-03-04T05:08:55.033Z,9.10
2019-03-04T05:12:01.992Z,9.15
2019-03-04T05:15:09.665Z,9.11
2019-03-04T05:18:16.231Z,9.07
2019-03-04T05:21:22.989Z,9.10
2019-03-04T05:24:29.817Z,9.16
2019-03-04T05:27:37.531Z,9.27
2019-03-04T05:30:44.094Z,9.20
2019-03-04T05:33:50.809Z,9.23
2019-03-04T05:36:57.713Z,9.05
2019-03-04T05:40:04.758Z,9.00
2019-03-04T05:43:11.712Z,8.80
2019-03-04T05:46:18.374Z,8.68
2019-03-04T05:49:24.864Z,8.60
2019-03-04T05:52:31.419Z,8.52
2019-03-04T05:55:37.724Z,8.58
2019-03-04T05:58:44.365Z,8.51
2019-03-04T06:02:03.508Z,8.53
2019-03-04T06:05:10.243Z,8.59
2019-03-04T06:08:16.957Z,8.59
2019-03-04T06:11:23.751Z,8.71
2019-03-04T06:14:30.398Z,8.78
2019-03-04T06:17:37.729Z,8.72
2019-03-04T06:20:44.315Z,8.76
2019-03-04T06:23:51.020Z,8.81
2019-03-04T06:26:57.395Z,9.03
2019-03-04T06:30:04.151Z,9.15
2019-03-04T06:33:10.719Z,9.29
2019-03-04T06:36:17.694Z,9.44
2019-03-04T06:39:24.302Z,9.48
2019-03-04T06:42:30.820Z,9.28
2019-03-04T06:45:37.508Z,9.34
2019-03-04T06:48:43.956Z,9.34
2019-03-04T06:51:51.446Z,9.30
2019-03-04T06:55:46.808Z,9.12
2019-03-04T06:58:57.905Z,9.06
2019-03-04T07:02:09.675Z,9.01
2019-03-04T07:05:45.721Z,9.06
2019-03-04T07:09:13.928Z,9.05
2019-03-04T07:12:21.458Z,9.16
2019-03-04T07:15:28.197Z,9.32
2019-03-04T07:18:34.041Z,9.30
2019-03-04T07:21:40.596Z,9.44
2019-03-04T07:24:47.335Z,9.46
2019-03-04T07:27:53.030Z,9.59
2019-03-04T07:30:58.920Z,9.72
2019-03-04T07:34:05.242Z,9.85
2019-03-04T07:37:11.146Z,9.96
2019-03-04T07:40:17.744Z,9.99
2019-03-04T07:43:23.542Z,10.15
2019-03-04T07:46:29.769Z,10.32
2019-03-04T07:49:35.672Z,10.26
2019-03-04T07:52:41.236Z,10.11
2019-03-04T07:55:47.197Z,10.17
2019-03-04T07:58:53.370Z,10.18
2019-03-04T08:01:59.437Z,9.98
2019-03-04T08:05:05.993Z,9.91
2019-03-04T08:08:12.294Z,9.66
2019-03-04T08:11:49.942Z,9.37
2019-03-04T08:14:57.126Z,9.16
2019-03-04T08:18:03.607Z,9.09
2019-03-04T08:21:10.394Z,9.10
2019-03-04T08:24:17.144Z,9.13
2019-03-04T08:27:23.992Z,9.32
2019-03-04T08:30:29.822Z,9.43
2019-03-04T08:33:35.825Z,9.26
2019-03-04T08:36:41.873Z,9.25
2019-03-04T08:39:48.249Z,9.27
2019-03-04T08:42:54.751Z,9.27
2019-03-04T08:46:01.185Z,9.42
2019-03-04T08:49:06.993Z,9.43
2019-03-04T08:52:12.969Z,9.61
2019-03-04T08:55:19.320Z,9.76
2019-03-04T08:58:25.054Z,9.84
2019-03-04T09:01:31.884Z,9.75
2019-03-04T09:04:37.884Z,9.73
2019-03-04T09:07:43.952Z,9.63
2019-03-04T09:10:50.063Z,9.80
2019-03-04T09:13:56.491Z,9.89
2019-03-04T09:17:02.425Z,9.94
2019-03-04T09:20:09.035Z,9.82
2019-03-04T09:23:15.177Z,9.89
2019-03-04T09:26:21.378Z,9.80
2019-03-04T09:29:28.584Z,9.80
2019-03-04T09:32:34.360Z,9.95
2019-03-04T09:35:40.664Z,10.05
2019-03-04T09:38:46.612Z,10.21
2019-03-04T09:41:54.585Z,10.43
2019-03-04T09:45:00.327Z,10.70
2019-03-04T09:48:06.173Z,10.66
2019-03-04T09:51:13.052Z,10.59
2019-03-04T09:54:18.907Z,10.77
2019-03-04T09:57:24.761Z,11.07
2019-03-04T10:00:41.967Z,11.07
2019-03-04T10:04:31.699Z,11.21
2019-03-04T10:08:00.816Z,11.10
2019-03-04T10:11:21.727Z,11.26
2019-03-04T10:15:08.036Z,11.24
2019-03-04T10:18:38.922Z,11.56
2019-03-04T10:21:53.242Z,11.40
2019-03-04T10:25:45.156Z,11.32
2019-03-04T10:29:30.577Z,11.05
2019-03-04T10:33:00.923Z,10.43
2019-03-04T10:36:56.279Z,9.46
2019-03-04T10:40:34.225Z,8.82
2019-03-04T10:43:51.988Z,8.50
2019-03-04T10:46:59.399Z,8.41
2019-03-04T10:50:05.660Z,8.56
2019-03-04T10:53:12.047Z,8.75
2019-03-04T10:56:17.712Z,8.83
2019-03-04T10:59:23.545Z,8.95
2019-03-04T11:02:29.475Z,9.07
2019-03-04T11:05:35.612Z,9.17
2019-03-04T11:08:41.599Z,9.44
2019-03-04T11:11:49.323Z,9.68
2019-03-04T11:14:54.963Z,9.66
2019-03-04T11:18:02.153Z,9.66
2019-03-04T11:21:07.847Z,9.87
2019-03-04T11:24:14.424Z,9.86
2019-03-04T11:27:20.561Z,10.08
2019-03-04T11:30:29.702Z,10.00
2019-03-04T11:33:35.849Z,10.11
2019-03-04T11:36:42.222Z,10.03
2019-03-04T11:40:10.957Z,10.17
2019-03-04T11:43:16.556Z,10.09
2019-03-04T11:46:25.040Z,10.04
2019-03-04T11:49:31.688Z,10.11
2019-03-04T11:52:37.813Z,10.28
2019-03-04T11:55:43.995Z,10.26
2019-03-04T11:58:49.435Z,10.18
2019-03-04T12:01:56.716Z,10.37
2019-03-04T12:05:03.806Z,10.45
2019-03-04T12:08:09.707Z,10.68
2019-03-04T12:11:19.721Z,10.33
2019-03-04T12:14:25.927Z,10.40
2019-03-04T12:17:32.311Z,10.53
2019-03-04T12:20:38.272Z,10.62
2019-03-04T12:23:44.138Z,10.40
2019-03-04T12:26:51.083Z,10.82
2019-03-04T12:29:56.972Z,10.79
2019-03-04T12:33:04.359Z,10.70
2019-03-04T12:36:10.514Z,10.55
2019-03-04T12:39:16.998Z,10.56
2019-03-04T12:42:23.029Z,10.60
2019-03-04T12:45:34.484Z,10.25
2019-03-04T12:48:37.570Z,10.10
2019-03-04T12:51:45.306Z,10.38
2019-03-04T12:54:51.752Z,9.79
2019-03-04T12:57:58.456Z,9.20
2019-03-04T13:01:04.563Z,9.22
2019-03-04T13:04:10.913Z,9.29
2019-03-04T13:07:16.877Z,9.26
2019-03-04T13:10:23.510Z,9.49
2019-03-04T13:13:30.420Z,9.48
2019-03-04T13:16:36.639Z,9.46
2019-03-04T13:19:43.019Z,9.45
2019-03-04T13:22:49.452Z,10.12
2019-03-04T13:25:55.400Z,9.87
2019-03-04T13:29:01.032Z,9.72
2019-03-04T13:32:07.721Z,9.69
2019-03-04T13:35:23.989Z,9.64
2019-03-04T13:38:22.942Z,9.49
2019-03-04T13:41:29.628Z,9.60
2019-03-04T13:44:35.646Z,9.30
2019-03-04T13:47:41.930Z,9.30
2019-03-04T13:50:48.274Z,9.35
2019-03-04T13:53:54.543Z,9.44
2019-03-04T13:57:00.539Z,9.39
2019-03-04T14:00:08.353Z,9.18
2019-03-04T14:03:14.619Z,9.20
2019-03-04T14:06:20.415Z,9.12
2019-03-04T14:09:26.490Z,9.14
2019-03-04T14:12:33.902Z,8.98
2019-03-04T14:15:40.490Z,9.26
2019-03-04T14:18:46.378Z,8.96
2019-03-04T14:21:52.461Z,8.77
2019-03-04T14:24:58.168Z,8.57
2019-03-04T14:28:04.528Z,8.57
2019-03-04T14:31:10.447Z,8.77
2019-03-04T14:34:17.394Z,8.85
2019-03-04T14:37:23.311Z,8.94
2019-03-04T14:40:29.344Z,8.75
2019-03-04T14:43:36.013Z,8.61
2019-03-04T14:46:42.250Z,8.36
2019-03-04T14:49:48.534Z,7.84
2019-03-04T14:52:58.180Z,7.55
2019-03-04T14:56:04.838Z,7.63
2019-03-04T14:59:11.637Z,7.68
2019-03-04T15:02:18.020Z,7.53
2019-03-04T15:05:24.611Z,7.09
2019-03-04T15:08:31.484Z,6.91
2019-03-04T15:11:39.042Z,7.00
2019-03-04T15:14:45.553Z,6.87
2019-03-04T15:17:51.926Z,6.86
2019-03-04T15:20:58.663Z,6.73
2019-03-04T15:24:05.213Z,6.74
2019-03-04T15:27:11.741Z,6.65
2019-03-04T15:30:20.443Z,6.60
2019-03-04T15:33:27.787Z,6.50
2019-03-04T15:36:34.702Z,6.51
2019-03-04T15:39:41.972Z,6.54
2019-03-04T15:42:47.814Z,6.57
2019-03-04T15:45:55.776Z,6.65
2019-03-04T15:49:02.487Z,6.66
2019-03-04T15:52:09.268Z,6.53
2019-03-04T15:55:15.937Z,6.43
2019-03-04T15:58:23.178Z,6.38
2019-03-04T16:01:29.985Z,6.35
2019-03-04T16:04:36.941Z,6.21
2019-03-04T16:07:45.292Z,6.30
2019-03-04T16:10:53.316Z,6.25
2019-03-04T16:14:03.626Z,6.26
2019-03-04T16:17:10.407Z,6.25
2019-03-04T16:20:18.924Z,6.14
2019-03-04T16:23:25.680Z,5.94
2019-03-04T16:26:33.886Z,5.23
2019-03-04T16:29:40.746Z,4.95
2019-03-04T16:32:49.024Z,4.58
2019-03-04T16:35:55.669Z,4.58
2019-03-04T16:39:04.756Z,4.48
2019-03-04T16:42:12.223Z,4.35
2019-03-04T16:45:18.581Z,4.13
2019-03-04T16:48:24.562Z,4.26
2019-03-04T16:51:31.584Z,4.20
2019-03-04T16:54:39.627Z,4.07
2019-03-04T16:57:46.001Z,3.97
2019-03-04T17:00:52.933Z,3.93
2019-03-04T17:03:59.055Z,3.78
2019-03-04T17:07:06.446Z,3.51
2019-03-04T17:10:13.405Z,3.49
2019-03-04T17:13:19.838Z,3.56
2019-03-04T17:16:27.412Z,3.47
2019-03-04T17:19:33.650Z,3.49
2019-03-04T17:22:40.405Z,3.54
2019-03-04T17:25:48.718Z,3.49
2019-03-04T17:28:54.881Z,3.51
2019-03-04T17:32:03.610Z,3.51
2019-03-04T17:35:10.587Z,3.50
2019-03-04T17:38:17.030Z,3.40
2019-03-04T17:41:24.991Z,3.41
2019-03-04T17:44:33.100Z,3.38
2019-03-04T17:47:39.809Z,3.40
2019-03-04T17:50:46.296Z,3.33
2019-03-04T17:53:52.459Z,3.38
2019-03-04T17:56:58.677Z,3.20
2019-03-04T18:00:07.470Z,3.27
2019-03-04T18:03:13.489Z,3.18
2019-03-04T18:06:19.606Z,3.13
2019-03-04T18:09:25.719Z,3.06
2019-03-04T18:12:37.752Z,3.13
2019-03-04T18:15:44.341Z,3.28
2019-03-04T18:18:50.430Z,3.30
2019-03-04T18:21:57.361Z,3.41
2019-03-04T18:25:03.461Z,3.35
2019-03-04T18:28:36.844Z,3.39
2019-03-04T18:31:50.899Z,3.38
2019-03-04T18:35:26.406Z,3.25
2019-03-04T18:39:25.124Z,3.24
2019-03-04T18:43:05.666Z,3.16
2019-03-04T18:46:44.687Z,3.27
2019-03-04T18:49:51.860Z,3.12
2019-03-04T18:52:58.257Z,3.29
2019-03-04T18:56:06.179Z,3.29
2019-03-04T18:59:12.742Z,3.31
2019-03-04T19:02:19.088Z,3.31
2019-03-04T19:05:26.091Z,3.18
2019-03-04T19:08:32.351Z,3.21
2019-03-04T19:11:39.322Z,3.25
2019-03-04T19:14:46.176Z,3.32
2019-03-04T19:17:52.758Z,3.30
2019-03-04T19:20:59.236Z,3.25
2019-03-04T19:24:05.534Z,3.17
2019-03-04T19:27:12.024Z,3.25
2019-03-04T19:30:18.353Z,3.35
2019-03-04T19:33:24.228Z,3.28
2019-03-04T19:36:33.498Z,3.23
2019-03-04T19:39:40.075Z,3.19
2019-03-04T19:42:46.534Z,3.25
2019-03-04T19:45:53.527Z,3.25
2019-03-04T19:48:59.746Z,3.31
2019-03-04T19:52:05.261Z,3.28
2019-03-04T19:55:12.826Z,3.35
2019-03-04T19:58:19.675Z,3.39
2019-03-04T20:01:27.101Z,3.44
2019-03-04T20:04:34.695Z,3.38
2019-03-04T20:07:40.999Z,3.40
2019-03-04T20:10:47.171Z,3.30
2019-03-04T20:13:53.730Z,3.30
2019-03-04T20:17:01.649Z,3.43
2019-03-04T20:20:10.375Z,3.42
2019-03-04T20:23:16.393Z,3.41
2019-03-04T20:26:22.419Z,3.49
2019-03-04T20:29:28.367Z,3.42
2019-03-04T20:32:37.643Z,3.44
2019-03-04T20:35:45.875Z,3.54
2019-03-04T20:38:52.485Z,3.41
2019-03-04T20:42:00.710Z,3.33
2019-03-04T20:45:08.349Z,3.30
2019-03-04T20:48:14.893Z,3.32
2019-03-04T20:51:21.772Z,3.29
2019-03-04T20:54:30.519Z,3.41
2019-03-04T20:57:37.554Z,3.27
2019-03-04T21:00:45.194Z,3.30
2019-03-04T21:03:51.225Z,3.27
2019-03-04T21:06:57.449Z,3.33
2019-03-04T21:10:03.709Z,3.45
2019-03-04T21:13:16.217Z,3.36
2019-03-04T21:16:24.264Z,3.40
2019-03-04T21:19:30.498Z,3.39
2019-03-04T21:22:36.151Z,3.46
2019-03-04T21:25:50.998Z,3.40
2019-03-04T21:29:15.329Z,3.30
2019-03-04T21:32:36.834Z,3.39
2019-03-04T21:36:38.177Z,3.44
2019-03-04T21:39:48.282Z,3.48
2019-03-04T21:43:01.293Z,3.43
2019-03-04T21:46:45.822Z,3.39
2019-03-04T21:49:55.045Z,3.43
2019-03-04T21:53:08.933Z,3.37
2019-03-04T21:56:54.131Z,3.36
2019-03-04T22:00:00.460Z,3.33
2019-03-04T22:03:20.890Z,3.36
2019-03-04T22:06:27.004Z,3.35
2019-03-04T22:09:32.868Z,3.42
2019-03-04T22:12:39.537Z,3.51
2019-03-04T22:15:46.303Z,3.51
2019-03-04T22:18:52.417Z,3.50
2019-03-04T22:21:58.432Z,3.53
2019-03-04T22:25:04.448Z,3.45
2019-03-04T22:28:11.748Z,3.52
2019-03-04T22:31:17.587Z,3.50
2019-03-04T22:34:23.796Z,3.51
2019-03-04T22:37:29.859Z,3.40
2019-03-04T22:40:35.695Z,3.40
2019-03-04T22:43:41.636Z,3.25
2019-03-04T22:46:47.525Z,3.30
2019-03-04T22:49:54.374Z,3.43
2019-03-04T22:53:00.254Z,3.36
2019-03-04T22:56:06.419Z,3.48
2019-03-04T22:59:12.720Z,3.36
2019-03-04T23:02:20.087Z,3.47
2019-03-04T23:05:26.329Z,3.48
2019-03-04T23:08:32.129Z,3.43
2019-03-04T23:11:39.413Z,3.50
2019-03-04T23:14:45.807Z,3.70
2019-03-04T23:17:51.949Z,3.62
2019-03-04T23:20:57.743Z,3.58
2019-03-04T23:24:03.657Z,3.60
2019-03-04T23:27:09.493Z,3.75
2019-03-04T23:30:15.856Z,3.75
2019-03-04T23:33:21.332Z,3.83
2019-03-04T23:36:27.585Z,3.93
2019-03-04T23:39:35.822Z,3.95
2019-03-04T23:42:41.744Z,3.90
2019-03-04T23:45:49.027Z,4.01
2019-03-04T23:48:55.460Z,4.09
2019-03-04T23:52:02.179Z,4.10
2019-03-04T23:55:07.960Z,4.09
2019-03-04T23:58:13.733Z,4.06
